sensor_id;sensor_type;location;lat;lon;timestamp;temperature;humidity
1385;DHT22;686;51.080;13.716;2022-09-03T08:30:10;18.50;99.90
1385;DHT22;686;51.080;13.716;2022-09-03T08:32:39;18.70;99.90
1385;DHT22;686;51.080;13.716;2022-09-03T08:35:06;18.80;99.90
1385;DHT22;686;51.080;13.716;2022-09-03T08:37:34;18.90;99.90
1385;DHT22;686;51.080;13.716;2022-09-03T08:40:00;18.90;99.90
1385;DHT22;686;51.080;13.716;2022-09-03T08:45:18;19.40;99.90
1385;DHT22;686;51.080;13.716;2022-09-03T08:47:56;19.60;99.90
1385;DHT22;686;51.080;13.716;2022-09-03T08:50:28;19.40;99.90
1385;DHT22;686;51.080;13.716;2022-09-03T08:53:15;19.50;99.90
1385;DHT22;686;51.080;13.716;2022-09-03T08:58:19;19.80;99.90
1385;DHT22;686;51.080;13.716;2022-09-03T09:00:59;19.90;99.90
1385;DHT22;686;51.080;13.716;2022-09-03T09:06:07;20.10;99.90
1385;DHT22;686;51.080;13.716;2022-09-03T09:08:47;20.20;99.90
1385;DHT22;686;51.080;13.716;2022-09-03T09:11:42;20.20;99.90
1385;DHT22;686;51.080;13.716;2022-09-03T09:17:03;20.20;99.90
1385;DHT22;686;51.080;13.716;2022-09-03T09:22:40;20.30;99.90
1385;DHT22;686;51.080;13.716;2022-09-03T09:25:13;20.50;99.90
1385;DHT22;686;51.080;13.716;2022-09-03T09:27:50;20.70;99.90
1385;DHT22;686;51.080;13.716;2022-09-03T09:30:17;20.70;99.90
1385;DHT22;686;51.080;13.716;2022-09-03T09:32:43;20.70;99.90
1385;DHT22;686;51.080;13.716;2022-09-03T09:35:13;20.80;99.90
1385;DHT22;686;51.080;13.716;2022-09-03T09:37:54;20.80;99.90
1385;DHT22;686;51.080;13.716;2022-09-03T09:40:34;21.00;99.90
1385;DHT22;686;51.080;13.716;2022-09-03T09:43:16;21.10;99.90
1385;DHT22;686;51.080;13.716;2022-09-03T09:45:52;21.10;99.90
1385;DHT22;686;51.080;13.716;2022-09-03T09:48:22;21.20;99.90
1385;DHT22;686;51.080;13.716;2022-09-03T09:51:11;21.20;99.90
1385;DHT22;686;51.080;13.716;2022-09-03T09:53:39;20.90;99.90
1385;DHT22;686;51.080;13.716;2022-09-03T09:56:06;20.90;99.90
1385;DHT22;686;51.080;13.716;2022-09-03T09:58:33;21.10;99.90
1385;DHT22;686;51.080;13.716;2022-09-03T10:03:25;21.30;99.90
1385;DHT22;686;51.080;13.716;2022-09-03T10:06:07;21.00;99.90
1385;DHT22;686;51.080;13.716;2022-09-03T10:09:04;21.10;99.90
1385;DHT22;686;51.080;13.716;2022-09-03T10:11:34;21.10;99.90
1385;DHT22;686;51.080;13.716;2022-09-03T10:14:33;21.30;99.90
1385;DHT22;686;51.080;13.716;2022-09-03T10:17:16;21.40;99.90
1385;DHT22;686;51.080;13.716;2022-09-03T10:25:45;21.70;99.90
1385;DHT22;686;51.080;13.716;2022-09-03T10:28:15;21.90;99.90
1385;DHT22;686;51.080;13.716;2022-09-03T10:33:37;21.80;99.90
1385;DHT22;686;51.080;13.716;2022-09-03T10:36:26;22.00;99.90
1385;DHT22;686;51.080;13.716;2022-09-03T10:39:05;22.10;99.90
1385;DHT22;686;51.080;13.716;2022-09-03T10:47:56;22.00;99.90
1385;DHT22;686;51.080;13.716;2022-09-03T11:09:32;22.70;99.80
1385;DHT22;686;51.080;13.716;2022-09-03T11:12:04;22.70;99.00
1385;DHT22;686;51.080;13.716;2022-09-03T11:14:44;22.90;99.00
1385;DHT22;686;51.080;13.716;2022-09-03T11:17:15;22.90;98.20
1385;DHT22;686;51.080;13.716;2022-09-03T11:19:49;22.60;98.60
1385;DHT22;686;51.080;13.716;2022-09-03T11:22:19;22.70;98.70
1385;DHT22;686;51.080;13.716;2022-09-03T11:24:53;22.60;98.80
1385;DHT22;686;51.080;13.716;2022-09-03T11:27:30;22.90;98.10
1385;DHT22;686;51.080;13.716;2022-09-03T11:30:07;22.80;98.70
1385;DHT22;686;51.080;13.716;2022-09-03T11:35:12;22.80;98.70
1385;DHT22;686;51.080;13.716;2022-09-03T11:37:52;23.00;99.00
1385;DHT22;686;51.080;13.716;2022-09-03T11:40:19;23.30;98.90
1385;DHT22;686;51.080;13.716;2022-09-03T11:43:05;23.30;98.30
1385;DHT22;686;51.080;13.716;2022-09-03T11:47:57;23.10;97.80
1385;DHT22;686;51.080;13.716;2022-09-03T11:53:05;22.80;97.60
1385;DHT22;686;51.080;13.716;2022-09-03T11:55:51;22.70;97.40
1385;DHT22;686;51.080;13.716;2022-09-03T11:58:32;23.20;96.80
1385;DHT22;686;51.080;13.716;2022-09-03T12:01:10;23.20;95.90
1385;DHT22;686;51.080;13.716;2022-09-03T12:03:52;23.30;96.50
1385;DHT22;686;51.080;13.716;2022-09-03T12:06:32;22.90;96.50
1385;DHT22;686;51.080;13.716;2022-09-03T12:09:29;22.60;96.60
1385;DHT22;686;51.080;13.716;2022-09-03T12:14:57;22.50;97.00
1385;DHT22;686;51.080;13.716;2022-09-03T12:20:33;22.90;96.10
1385;DHT22;686;51.080;13.716;2022-09-03T12:22:59;22.70;95.70
1385;DHT22;686;51.080;13.716;2022-09-03T12:25:28;22.80;95.50
1385;DHT22;686;51.080;13.716;2022-09-03T12:27:53;23.00;95.70
1385;DHT22;686;51.080;13.716;2022-09-03T12:30:23;23.20;95.10
1385;DHT22;686;51.080;13.716;2022-09-03T12:32:50;23.30;95.80
1385;DHT22;686;51.080;13.716;2022-09-03T12:35:22;23.10;95.50
1385;DHT22;686;51.080;13.716;2022-09-03T12:37:51;23.30;95.50
1385;DHT22;686;51.080;13.716;2022-09-03T12:40:17;23.40;95.30
1385;DHT22;686;51.080;13.716;2022-09-03T12:42:44;23.20;94.50
1385;DHT22;686;51.080;13.716;2022-09-03T12:45:10;23.60;94.80
1385;DHT22;686;51.080;13.716;2022-09-03T12:47:43;23.70;94.10
1385;DHT22;686;51.080;13.716;2022-09-03T12:50:14;23.70;94.50
1385;DHT22;686;51.080;13.716;2022-09-03T13:00:35;23.50;93.80
1385;DHT22;686;51.080;13.716;2022-09-03T13:03:06;23.60;94.50
1385;DHT22;686;51.080;13.716;2022-09-03T13:05:42;23.70;94.60
1385;DHT22;686;51.080;13.716;2022-09-03T13:08:14;23.80;94.80
1385;DHT22;686;51.080;13.716;2022-09-03T13:10:42;24.00;94.50
1385;DHT22;686;51.080;13.716;2022-09-03T13:13:28;24.10;94.30
1385;DHT22;686;51.080;13.716;2022-09-03T13:19:47;23.50;94.70
1385;DHT22;686;51.080;13.716;2022-09-03T13:27:51;23.30;94.30
1385;DHT22;686;51.080;13.716;2022-09-03T13:30:21;23.60;94.60
1385;DHT22;686;51.080;13.716;2022-09-03T13:35:38;23.80;94.30
1385;DHT22;686;51.080;13.716;2022-09-03T13:40:47;23.80;94.30
1385;DHT22;686;51.080;13.716;2022-09-03T13:46:10;23.70;94.20
1385;DHT22;686;51.080;13.716;2022-09-03T13:48:43;23.80;94.50
1385;DHT22;686;51.080;13.716;2022-09-03T13:51:28;23.80;94.30
1385;DHT22;686;51.080;13.716;2022-09-03T13:54:02;24.00;94.10
1385;DHT22;686;51.080;13.716;2022-09-03T13:56:56;24.20;93.90
1385;DHT22;686;51.080;13.716;2022-09-03T13:59:27;24.20;93.20
1385;DHT22;686;51.080;13.716;2022-09-03T14:02:19;24.10;93.10
1385;DHT22;686;51.080;13.716;2022-09-03T14:07:34;24.60;92.50
1385;DHT22;686;51.080;13.716;2022-09-03T14:10:21;24.40;92.00
1385;DHT22;686;51.080;13.716;2022-09-03T14:13:01;24.40;92.40
1385;DHT22;686;51.080;13.716;2022-09-03T14:16:23;24.20;92.70
1385;DHT22;686;51.080;13.716;2022-09-03T14:18:47;24.10;92.30
1385;DHT22;686;51.080;13.716;2022-09-03T14:21:24;23.80;92.10
1385;DHT22;686;51.080;13.716;2022-09-03T14:24:13;23.70;92.70
1385;DHT22;686;51.080;13.716;2022-09-03T14:26:49;23.40;93.10
1385;DHT22;686;51.080;13.716;2022-09-03T14:29:16;23.30;93.50
1385;DHT22;686;51.080;13.716;2022-09-03T14:34:46;23.50;93.50
1385;DHT22;686;51.080;13.716;2022-09-03T14:37:37;23.60;93.30
1385;DHT22;686;51.080;13.716;2022-09-03T14:40:42;23.70;93.70
1385;DHT22;686;51.080;13.716;2022-09-03T14:46:26;23.40;93.30
1385;DHT22;686;51.080;13.716;2022-09-03T14:54:41;23.10;94.00
1385;DHT22;686;51.080;13.716;2022-09-03T15:00:14;22.80;93.70
1385;DHT22;686;51.080;13.716;2022-09-03T15:11:29;23.30;93.90
1385;DHT22;686;51.080;13.716;2022-09-03T15:30:37;23.00;94.20
1385;DHT22;686;51.080;13.716;2022-09-03T15:33:28;23.00;94.20
